createdAt,value
2022-12-31T01:38:12.258Z,1.00
2022-12-31T01:39:12.231Z,1.30
2022-12-31T01:40:12.201Z,0.90
2022-12-31T01:41:12.186Z,0.80
2022-12-31T01:42:12.181Z,0.90
2022-12-31T01:43:12.164Z,0.80
2022-12-31T01:44:12.175Z,1.00
2022-12-31T01:45:12.155Z,0.90
2022-12-31T01:46:12.175Z,0.80
2022-12-31T01:47:12.122Z,0.80
2022-12-31T01:48:12.118Z,0.80
2022-12-31T01:49:12.134Z,0.80
2022-12-31T01:50:12.093Z,0.60
2022-12-31T01:51:12.074Z,1.60
2022-12-31T01:52:12.084Z,0.60
2022-12-31T01:53:12.059Z,0.70
2022-12-31T01:54:12.084Z,2.20
2022-12-31T01:55:12.045Z,0.80
2022-12-31T01:56:12.033Z,1.40
2022-12-31T01:57:12.063Z,1.00
2022-12-31T01:58:12.004Z,0.80
2022-12-31T01:59:12.008Z,0.70
2022-12-31T02:00:11.979Z,0.80
2022-12-31T02:01:12.021Z,0.60
2022-12-31T02:02:12.028Z,0.60
2022-12-31T02:03:12.034Z,0.60
2022-12-31T02:04:11.935Z,0.60
2022-12-31T02:05:11.961Z,0.60
2022-12-31T02:06:11.920Z,0.50
2022-12-31T02:07:11.896Z,1.40
2022-12-31T02:08:11.904Z,0.60
2022-12-31T02:09:11.895Z,0.60
2022-12-31T02:10:11.899Z,0.60
2022-12-31T02:11:11.856Z,0.50
2022-12-31T02:12:11.862Z,0.60
2022-12-31T02:13:11.856Z,0.60
2022-12-31T02:14:11.847Z,0.60
2022-12-31T02:15:11.816Z,0.50
2022-12-31T02:16:11.830Z,0.50
2022-12-31T02:17:11.818Z,0.70
2022-12-31T02:18:11.828Z,0.40
2022-12-31T02:19:11.772Z,1.00
2022-12-31T02:20:11.771Z,1.30
2022-12-31T02:21:11.739Z,1.50
2022-12-31T02:22:11.755Z,0.60
2022-12-31T02:23:11.732Z,1.70
2022-12-31T02:24:11.740Z,1.40
2022-12-31T02:25:11.736Z,0.70
2022-12-31T02:26:11.707Z,0.70
2022-12-31T02:27:11.700Z,0.90
2022-12-31T02:28:11.671Z,0.70
2022-12-31T02:29:11.725Z,0.60
2022-12-31T02:30:11.675Z,0.50
2022-12-31T02:31:11.698Z,0.50
2022-12-31T02:32:12.568Z,0.60
2022-12-31T02:33:11.632Z,0.70
2022-12-31T02:34:11.612Z,0.60
2022-12-31T02:35:11.594Z,0.70
2022-12-31T02:36:11.585Z,0.70
2022-12-31T02:37:11.579Z,0.60
2022-12-31T02:38:11.573Z,0.60
2022-12-31T02:39:11.604Z,2.00
2022-12-31T02:40:11.537Z,1.10
2022-12-31T02:41:11.536Z,0.90
2022-12-31T02:42:11.530Z,0.70
2022-12-31T02:43:11.510Z,0.70
2022-12-31T02:44:11.498Z,0.70
2022-12-31T02:45:11.500Z,0.60
2022-12-31T02:46:11.613Z,0.70
2022-12-31T02:47:11.503Z,0.70
2022-12-31T02:48:11.469Z,0.70
2022-12-31T02:49:11.440Z,0.70
2022-12-31T02:50:11.429Z,0.80
2022-12-31T02:51:11.422Z,0.90
2022-12-31T02:52:11.415Z,1.10
2022-12-31T02:53:11.391Z,0.80
2022-12-31T02:54:11.387Z,0.60
2022-12-31T02:55:11.401Z,0.50
2022-12-31T02:56:11.376Z,1.00
2022-12-31T02:57:11.347Z,0.70
2022-12-31T02:58:11.367Z,1.90
2022-12-31T02:59:11.349Z,0.70
2022-12-31T03:00:11.345Z,0.80
2022-12-31T03:01:11.480Z,0.60
2022-12-31T03:02:11.399Z,1.20
2022-12-31T03:03:11.274Z,0.90
2022-12-31T03:04:11.284Z,0.60
2022-12-31T03:05:11.273Z,0.80
2022-12-31T03:06:11.261Z,0.60
2022-12-31T03:07:11.235Z,0.60
2022-12-31T03:08:11.225Z,1.10
2022-12-31T03:09:11.231Z,0.60
2022-12-31T03:10:11.234Z,0.80
2022-12-31T03:11:11.224Z,0.50
2022-12-31T03:12:11.199Z,1.20
2022-12-31T03:13:11.197Z,0.40
2022-12-31T03:14:11.182Z,1.30
2022-12-31T03:15:11.149Z,1.00
2022-12-31T03:16:11.167Z,0.40
2022-12-31T03:17:11.120Z,1.00
2022-12-31T03:18:11.125Z,0.40
2022-12-31T03:19:11.101Z,0.70
2022-12-31T03:20:11.092Z,0.40
2022-12-31T03:21:11.085Z,1.70
2022-12-31T03:22:11.069Z,0.40
2022-12-31T03:23:11.073Z,0.60
2022-12-31T03:24:11.050Z,0.40
2022-12-31T03:25:11.033Z,0.30
2022-12-31T03:26:11.043Z,0.40
2022-12-31T03:27:11.016Z,0.50
2022-12-31T03:28:11.037Z,0.40
2022-12-31T03:29:10.991Z,1.10
2022-12-31T03:30:11.010Z,0.40
2022-12-31T03:31:11.001Z,0.40
2022-12-31T03:32:10.989Z,0.40
2022-12-31T03:33:10.979Z,0.30
2022-12-31T03:34:10.931Z,1.60
2022-12-31T03:35:10.946Z,0.40
2022-12-31T03:36:10.955Z,0.30
2022-12-31T03:37:10.908Z,0.50
2022-12-31T23:46:40.287Z,3.40
2022-12-31T23:47:40.162Z,5.90
2022-12-31T23:48:40.158Z,6.70
2022-12-31T23:49:40.135Z,4.90
2022-12-31T23:50:40.166Z,5.20
2022-12-31T23:51:40.131Z,8.60
2022-12-31T23:52:40.115Z,6.40
2022-12-31T23:53:40.115Z,6.90
2022-12-31T23:54:40.088Z,5.50
2022-12-31T23:55:40.082Z,5.40
2022-12-31T23:56:40.070Z,7.70
2022-12-31T23:57:40.056Z,5.60
2022-12-31T23:58:40.050Z,6.30
2022-12-31T23:59:40.065Z,6.60
